SKCC/CUC METAR and TAF weather

Enter ICAO airport designator
Station Type Date Time Source
SKCC METAR 2018/12/15 03:00 UTC NOAA

SKCC 150300Z VRB02KT 9999 SCT020 SCT200 25/21 A3002


Station Type Date Time Source
SKCC Decoded METAR 2018/12/15 03:00 UTC NOAA

Cucuta / Camilo Daza, Colombia (SKCC) 07-56N 072-31W 317M
Dec 14, 2018 - 10:00 PM EST / 2018.12.15 0300 UTC
Wind: Variable at 2 MPH (2 KT):0
Visibility: greater than 7 mile(s):0
Sky conditions: partly cloudy
Temperature: 77 F (25 C)
Dew Point: 69 F (21 C)
Relative Humidity: 78%
Pressure (altimeter): 30.02 in. Hg (1016 hPa)
ob: SKCC 150300Z VRB02KT 9999 SCT020 SCT200 25/21 A3002
cycle: 3

Station Type Date Time Source
SKCC TAF 2018/12/14 18:42 UTC NOAA

TAF TAF SKCC 141700Z 1418/1518 01012KT 9999 FEW023 TX32/1418Z TN22/1511Z


Example: see airport list